sensor_id;sensor_type;location;lat;lon;timestamp;P1;durP1;ratioP1;P2;durP2;ratioP2
22284;SDS011;11311;52.192;20.900;2022-10-16T00:01:43;14.50;;;10.13;;
22284;SDS011;11311;52.192;20.900;2022-10-16T00:04:12;12.75;;;8.52;;
22284;SDS011;11311;52.192;20.900;2022-10-16T00:06:41;11.57;;;9.10;;
22284;SDS011;11311;52.192;20.900;2022-10-16T00:09:10;15.43;;;9.80;;
22284;SDS011;11311;52.192;20.900;2022-10-16T00:11:39;23.35;;;9.95;;
22284;SDS011;11311;52.192;20.900;2022-10-16T00:14:11;13.27;;;9.53;;
22284;SDS011;11311;52.192;20.900;2022-10-16T00:16:41;10.88;;;9.35;;
22284;SDS011;11311;52.192;20.900;2022-10-16T00:19:11;14.07;;;8.88;;
22284;SDS011;11311;52.192;20.900;2022-10-16T00:21:40;13.23;;;9.90;;
22284;SDS011;11311;52.192;20.900;2022-10-16T00:24:09;17.20;;;11.73;;
22284;SDS011;11311;52.192;20.900;2022-10-16T00:26:38;15.57;;;10.40;;
22284;SDS011;11311;52.192;20.900;2022-10-16T00:29:08;14.20;;;11.37;;
22284;SDS011;11311;52.192;20.900;2022-10-16T00:31:37;16.08;;;11.32;;
22284;SDS011;11311;52.192;20.900;2022-10-16T00:34:06;15.45;;;11.95;;
22284;SDS011;11311;52.192;20.900;2022-10-16T00:36:35;16.73;;;13.23;;
22284;SDS011;11311;52.192;20.900;2022-10-16T00:39:05;18.02;;;13.60;;
22284;SDS011;11311;52.192;20.900;2022-10-16T00:41:34;20.45;;;13.82;;
22284;SDS011;11311;52.192;20.900;2022-10-16T00:44:40;19.40;;;14.50;;
22284;SDS011;11311;52.192;20.900;2022-10-16T00:47:15;19.42;;;14.45;;
22284;SDS011;11311;52.192;20.900;2022-10-16T00:49:47;17.40;;;15.55;;
22284;SDS011;11311;52.192;20.900;2022-10-16T00:52:17;27.75;;;17.60;;
22284;SDS011;11311;52.192;20.900;2022-10-16T00:54:46;17.60;;;15.60;;
22284;SDS011;11311;52.192;20.900;2022-10-16T00:57:15;20.77;;;16.70;;
22284;SDS011;11311;52.192;20.900;2022-10-16T00:59:46;21.83;;;15.27;;
22284;SDS011;11311;52.192;20.900;2022-10-16T01:02:15;18.27;;;16.00;;
22284;SDS011;11311;52.192;20.900;2022-10-16T01:04:45;21.05;;;15.93;;
22284;SDS011;11311;52.192;20.900;2022-10-16T01:07:18;18.92;;;14.90;;
22284;SDS011;11311;52.192;20.900;2022-10-16T01:09:55;20.58;;;14.57;;
22284;SDS011;11311;52.192;20.900;2022-10-16T01:12:32;24.50;;;14.32;;
22284;SDS011;11311;52.192;20.900;2022-10-16T01:15:10;19.98;;;15.25;;
22284;SDS011;11311;52.192;20.900;2022-10-16T01:17:43;21.45;;;16.15;;
22284;SDS011;11311;52.192;20.900;2022-10-16T01:20:17;25.20;;;16.75;;
22284;SDS011;11311;52.192;20.900;2022-10-16T01:23:02;17.15;;;14.90;;
22284;SDS011;11311;52.192;20.900;2022-10-16T01:25:44;20.02;;;16.15;;
22284;SDS011;11311;52.192;20.900;2022-10-16T01:28:38;24.40;;;16.85;;
22284;SDS011;11311;52.192;20.900;2022-10-16T01:31:09;19.38;;;16.00;;
22284;SDS011;11311;52.192;20.900;2022-10-16T01:36:09;21.27;;;16.58;;
22284;SDS011;11311;52.192;20.900;2022-10-16T01:38:41;21.08;;;17.05;;
22284;SDS011;11311;52.192;20.900;2022-10-16T01:41:15;18.67;;;15.95;;
22284;SDS011;11311;52.192;20.900;2022-10-16T01:43:48;22.25;;;16.45;;
22284;SDS011;11311;52.192;20.900;2022-10-16T01:46:19;22.38;;;17.00;;
22284;SDS011;11311;52.192;20.900;2022-10-16T01:48:50;22.98;;;17.40;;
22284;SDS011;11311;52.192;20.900;2022-10-16T01:51:19;28.33;;;17.63;;
22284;SDS011;11311;52.192;20.900;2022-10-16T01:53:52;24.10;;;17.48;;
22284;SDS011;11311;52.192;20.900;2022-10-16T01:56:22;22.15;;;17.02;;
22284;SDS011;11311;52.192;20.900;2022-10-16T01:58:54;25.73;;;17.60;;
22284;SDS011;11311;52.192;20.900;2022-10-16T02:01:25;26.95;;;17.42;;
22284;SDS011;11311;52.192;20.900;2022-10-16T02:06:24;32.85;;;16.92;;
22284;SDS011;11311;52.192;20.900;2022-10-16T02:08:53;21.08;;;18.50;;
22284;SDS011;11311;52.192;20.900;2022-10-16T02:11:22;24.50;;;18.17;;
22284;SDS011;11311;52.192;20.900;2022-10-16T02:13:51;22.80;;;17.98;;
22284;SDS011;11311;52.192;20.900;2022-10-16T02:16:32;22.00;;;18.02;;
22284;SDS011;11311;52.192;20.900;2022-10-16T02:19:01;25.75;;;19.15;;
22284;SDS011;11311;52.192;20.900;2022-10-16T02:21:32;23.40;;;18.05;;
22284;SDS011;11311;52.192;20.900;2022-10-16T02:24:06;27.77;;;20.10;;
22284;SDS011;11311;52.192;20.900;2022-10-16T02:26:39;25.40;;;20.25;;
22284;SDS011;11311;52.192;20.900;2022-10-16T02:29:13;27.90;;;20.10;;
22284;SDS011;11311;52.192;20.900;2022-10-16T02:31:45;26.27;;;19.08;;
22284;SDS011;11311;52.192;20.900;2022-10-16T02:34:16;20.75;;;17.83;;
22284;SDS011;11311;52.192;20.900;2022-10-16T02:39:15;28.30;;;18.33;;
22284;SDS011;11311;52.192;20.900;2022-10-16T02:41:44;27.80;;;20.02;;
22284;SDS011;11311;52.192;20.900;2022-10-16T02:44:14;22.08;;;18.83;;
22284;SDS011;11311;52.192;20.900;2022-10-16T02:46:43;25.67;;;19.85;;
22284;SDS011;11311;52.192;20.900;2022-10-16T02:49:12;26.63;;;19.13;;
22284;SDS011;11311;52.192;20.900;2022-10-16T02:51:40;22.17;;;19.30;;
22284;SDS011;11311;52.192;20.900;2022-10-16T02:54:09;27.15;;;21.00;;
22284;SDS011;11311;52.192;20.900;2022-10-16T02:56:38;31.83;;;20.88;;
22284;SDS011;11311;52.192;20.900;2022-10-16T02:59:07;23.13;;;19.02;;
22284;SDS011;11311;52.192;20.900;2022-10-16T03:01:38;26.33;;;21.10;;
22284;SDS011;11311;52.192;20.900;2022-10-16T03:04:06;29.98;;;22.10;;
22284;SDS011;11311;52.192;20.900;2022-10-16T03:06:36;25.90;;;20.30;;
22284;SDS011;11311;52.192;20.900;2022-10-16T03:09:05;27.75;;;20.05;;
22284;SDS011;11311;52.192;20.900;2022-10-16T03:11:33;23.00;;;18.55;;
22284;SDS011;11311;52.192;20.900;2022-10-16T03:14:02;26.50;;;20.95;;
22284;SDS011;11311;52.192;20.900;2022-10-16T03:16:31;30.38;;;21.70;;
22284;SDS011;11311;52.192;20.900;2022-10-16T03:19:01;29.55;;;20.25;;
22284;SDS011;11311;52.192;20.900;2022-10-16T03:21:30;27.13;;;19.55;;
22284;SDS011;11311;52.192;20.900;2022-10-16T03:23:59;26.17;;;21.60;;
22284;SDS011;11311;52.192;20.900;2022-10-16T03:26:27;28.02;;;20.95;;
22284;SDS011;11311;52.192;20.900;2022-10-16T03:28:56;26.50;;;20.60;;
22284;SDS011;11311;52.192;20.900;2022-10-16T03:31:25;26.73;;;19.25;;
22284;SDS011;11311;52.192;20.900;2022-10-16T03:33:54;24.02;;;19.25;;
22284;SDS011;11311;52.192;20.900;2022-10-16T03:36:24;23.80;;;19.85;;
22284;SDS011;11311;52.192;20.900;2022-10-16T03:41:21;23.00;;;18.55;;
22284;SDS011;11311;52.192;20.900;2022-10-16T03:43:50;22.65;;;18.55;;
22284;SDS011;11311;52.192;20.900;2022-10-16T03:46:18;25.15;;;17.92;;
22284;SDS011;11311;52.192;20.900;2022-10-16T03:48:47;22.45;;;17.20;;
22284;SDS011;11311;52.192;20.900;2022-10-16T03:51:16;26.27;;;19.42;;
22284;SDS011;11311;52.192;20.900;2022-10-16T03:53:46;27.23;;;19.45;;
22284;SDS011;11311;52.192;20.900;2022-10-16T03:56:15;27.10;;;20.42;;
22284;SDS011;11311;52.192;20.900;2022-10-16T03:58:43;21.27;;;17.88;;
22284;SDS011;11311;52.192;20.900;2022-10-16T04:01:12;29.52;;;18.85;;
22284;SDS011;11311;52.192;20.900;2022-10-16T04:03:41;25.60;;;19.30;;
22284;SDS011;11311;52.192;20.900;2022-10-16T04:06:10;24.48;;;18.80;;
22284;SDS011;11311;52.192;20.900;2022-10-16T04:08:41;23.08;;;19.08;;
22284;SDS011;11311;52.192;20.900;2022-10-16T04:11:12;27.48;;;19.05;;
22284;SDS011;11311;52.192;20.900;2022-10-16T04:13:40;29.33;;;18.42;;
22284;SDS011;11311;52.192;20.900;2022-10-16T04:16:09;26.38;;;19.25;;
22284;SDS011;11311;52.192;20.900;2022-10-16T04:18:38;26.08;;;19.45;;
22284;SDS011;11311;52.192;20.900;2022-10-16T04:21:07;23.60;;;18.85;;
22284;SDS011;11311;52.192;20.900;2022-10-16T04:23:36;24.52;;;19.52;;
22284;SDS011;11311;52.192;20.900;2022-10-16T04:26:07;29.58;;;19.52;;
22284;SDS011;11311;52.192;20.900;2022-10-16T04:28:38;22.48;;;20.08;;
22284;SDS011;11311;52.192;20.900;2022-10-16T04:31:08;22.48;;;19.33;;
22284;SDS011;11311;52.192;20.900;2022-10-16T04:33:37;22.48;;;18.45;;
22284;SDS011;11311;52.192;20.900;2022-10-16T04:36:05;23.63;;;18.42;;
22284;SDS011;11311;52.192;20.900;2022-10-16T04:38:34;21.90;;;19.27;;
22284;SDS011;11311;52.192;20.900;2022-10-16T04:41:04;26.67;;;19.80;;
22284;SDS011;11311;52.192;20.900;2022-10-16T04:43:33;24.48;;;19.15;;
22284;SDS011;11311;52.192;20.900;2022-10-16T04:46:03;22.98;;;18.17;;
22284;SDS011;11311;52.192;20.900;2022-10-16T04:48:32;25.98;;;19.60;;
22284;SDS011;11311;52.192;20.900;2022-10-16T04:51:01;28.25;;;19.85;;
22284;SDS011;11311;52.192;20.900;2022-10-16T04:53:30;22.75;;;17.60;;
22284;SDS011;11311;52.192;20.900;2022-10-16T04:55:58;24.67;;;17.15;;
22284;SDS011;11311;52.192;20.900;2022-10-16T04:58:27;26.45;;;20.38;;
22284;SDS011;11311;52.192;20.900;2022-10-16T05:00:56;27.30;;;19.77;;
22284;SDS011;11311;52.192;20.900;2022-10-16T05:03:26;26.65;;;20.08;;
22284;SDS011;11311;52.192;20.900;2022-10-16T05:06:00;25.80;;;18.38;;
22284;SDS011;11311;52.192;20.900;2022-10-16T05:08:28;28.15;;;19.75;;
22284;SDS011;11311;52.192;20.900;2022-10-16T05:10:57;25.27;;;19.70;;
22284;SDS011;11311;52.192;20.900;2022-10-16T05:13:26;25.50;;;16.85;;
22284;SDS011;11311;52.192;20.900;2022-10-16T05:15:55;22.33;;;18.23;;
22284;SDS011;11311;52.192;20.900;2022-10-16T05:18:25;26.17;;;19.67;;
22284;SDS011;11311;52.192;20.900;2022-10-16T05:20:54;25.85;;;21.23;;
22284;SDS011;11311;52.192;20.900;2022-10-16T05:23:23;27.55;;;21.38;;
22284;SDS011;11311;52.192;20.900;2022-10-16T05:25:52;25.95;;;19.95;;
22284;SDS011;11311;52.192;20.900;2022-10-16T05:28:22;30.67;;;20.27;;
22284;SDS011;11311;52.192;20.900;2022-10-16T05:30:51;26.77;;;19.65;;
22284;SDS011;11311;52.192;20.900;2022-10-16T05:33:20;29.27;;;18.73;;
22284;SDS011;11311;52.192;20.900;2022-10-16T05:35:51;22.73;;;17.85;;
22284;SDS011;11311;52.192;20.900;2022-10-16T05:38:20;31.77;;;20.15;;
22284;SDS011;11311;52.192;20.900;2022-10-16T05:40:51;28.98;;;20.40;;
22284;SDS011;11311;52.192;20.900;2022-10-16T05:43:20;25.58;;;20.55;;
22284;SDS011;11311;52.192;20.900;2022-10-16T05:45:55;28.13;;;21.40;;
22284;SDS011;11311;52.192;20.900;2022-10-16T05:48:25;26.33;;;19.20;;
22284;SDS011;11311;52.192;20.900;2022-10-16T05:50:58;28.90;;;20.77;;
22284;SDS011;11311;52.192;20.900;2022-10-16T05:53:27;28.00;;;20.77;;
22284;SDS011;11311;52.192;20.900;2022-10-16T05:55:57;24.73;;;18.90;;
22284;SDS011;11311;52.192;20.900;2022-10-16T05:58:28;28.40;;;21.10;;
22284;SDS011;11311;52.192;20.900;2022-10-16T06:00:58;24.55;;;20.23;;
22284;SDS011;11311;52.192;20.900;2022-10-16T06:03:30;27.65;;;20.60;;
22284;SDS011;11311;52.192;20.900;2022-10-16T06:06:00;25.27;;;18.45;;
22284;SDS011;11311;52.192;20.900;2022-10-16T06:08:38;30.77;;;19.20;;
22284;SDS011;11311;52.192;20.900;2022-10-16T06:11:08;25.63;;;19.10;;
22284;SDS011;11311;52.192;20.900;2022-10-16T06:13:37;29.63;;;19.38;;
22284;SDS011;11311;52.192;20.900;2022-10-16T06:16:09;21.63;;;16.65;;
22284;SDS011;11311;52.192;20.900;2022-10-16T06:18:38;23.20;;;17.77;;
22284;SDS011;11311;52.192;20.900;2022-10-16T06:21:09;22.55;;;17.33;;
22284;SDS011;11311;52.192;20.900;2022-10-16T06:23:39;21.85;;;16.88;;
22284;SDS011;11311;52.192;20.900;2022-10-16T06:26:08;19.80;;;15.80;;
22284;SDS011;11311;52.192;20.900;2022-10-16T06:28:38;22.55;;;14.65;;
22284;SDS011;11311;52.192;20.900;2022-10-16T06:31:07;19.40;;;15.35;;
22284;SDS011;11311;52.192;20.900;2022-10-16T06:33:37;24.05;;;17.08;;
22284;SDS011;11311;52.192;20.900;2022-10-16T06:36:07;20.88;;;12.82;;
22284;SDS011;11311;52.192;20.900;2022-10-16T06:38:38;20.10;;;13.35;;
22284;SDS011;11311;52.192;20.900;2022-10-16T06:41:07;18.15;;;16.25;;
22284;SDS011;11311;52.192;20.900;2022-10-16T06:43:37;21.45;;;15.85;;
22284;SDS011;11311;52.192;20.900;2022-10-16T06:46:06;18.90;;;14.43;;
22284;SDS011;11311;52.192;20.900;2022-10-16T06:51:05;24.00;;;15.55;;
22284;SDS011;11311;52.192;20.900;2022-10-16T06:53:37;18.50;;;13.57;;
22284;SDS011;11311;52.192;20.900;2022-10-16T06:56:26;19.70;;;13.23;;
22284;SDS011;11311;52.192;20.900;2022-10-16T07:01:25;20.80;;;16.35;;
22284;SDS011;11311;52.192;20.900;2022-10-16T07:03:54;17.70;;;15.82;;
22284;SDS011;11311;52.192;20.900;2022-10-16T07:06:24;22.50;;;17.67;;
22284;SDS011;11311;52.192;20.900;2022-10-16T07:08:55;23.50;;;16.02;;
22284;SDS011;11311;52.192;20.900;2022-10-16T07:11:23;19.25;;;16.85;;
22284;SDS011;11311;52.192;20.900;2022-10-16T07:13:53;25.88;;;17.63;;
22284;SDS011;11311;52.192;20.900;2022-10-16T07:16:23;19.88;;;16.10;;
22284;SDS011;11311;52.192;20.900;2022-10-16T07:18:53;20.15;;;17.15;;
22284;SDS011;11311;52.192;20.900;2022-10-16T07:21:26;22.63;;;15.90;;
22284;SDS011;11311;52.192;20.900;2022-10-16T07:26:29;17.67;;;13.05;;
22284;SDS011;11311;52.192;20.900;2022-10-16T07:28:58;20.90;;;17.13;;
22284;SDS011;11311;52.192;20.900;2022-10-16T07:31:28;17.05;;;14.50;;
22284;SDS011;11311;52.192;20.900;2022-10-16T07:33:57;20.65;;;15.88;;
22284;SDS011;11311;52.192;20.900;2022-10-16T07:36:26;21.57;;;14.87;;
22284;SDS011;11311;52.192;20.900;2022-10-16T07:38:55;18.67;;;15.25;;
22284;SDS011;11311;52.192;20.900;2022-10-16T07:41:27;20.30;;;14.98;;
22284;SDS011;11311;52.192;20.900;2022-10-16T07:43:57;17.25;;;12.98;;
22284;SDS011;11311;52.192;20.900;2022-10-16T07:46:27;13.85;;;12.32;;
22284;SDS011;11311;52.192;20.900;2022-10-16T07:48:56;18.50;;;12.50;;
22284;SDS011;11311;52.192;20.900;2022-10-16T07:51:25;15.70;;;12.15;;
22284;SDS011;11311;52.192;20.900;2022-10-16T07:53:54;18.42;;;11.75;;
22284;SDS011;11311;52.192;20.900;2022-10-16T07:56:23;12.35;;;9.30;;
22284;SDS011;11311;52.192;20.900;2022-10-16T07:58:53;15.10;;;11.40;;
22284;SDS011;11311;52.192;20.900;2022-10-16T08:01:23;19.52;;;12.20;;
22284;SDS011;11311;52.192;20.900;2022-10-16T08:03:52;14.15;;;12.65;;
22284;SDS011;11311;52.192;20.900;2022-10-16T08:06:24;11.30;;;9.43;;
22284;SDS011;11311;52.192;20.900;2022-10-16T08:08:55;18.23;;;12.38;;
22284;SDS011;11311;52.192;20.900;2022-10-16T08:11:24;14.70;;;12.18;;
22284;SDS011;11311;52.192;20.900;2022-10-16T08:13:54;13.02;;;9.85;;
22284;SDS011;11311;52.192;20.900;2022-10-16T08:16:24;16.10;;;10.82;;
22284;SDS011;11311;52.192;20.900;2022-10-16T08:18:53;15.02;;;10.18;;
22284;SDS011;11311;52.192;20.900;2022-10-16T08:21:22;14.77;;;11.65;;
22284;SDS011;11311;52.192;20.900;2022-10-16T08:23:52;13.82;;;12.02;;
22284;SDS011;11311;52.192;20.900;2022-10-16T08:26:25;17.80;;;11.93;;
22284;SDS011;11311;52.192;20.900;2022-10-16T08:28:55;14.07;;;11.50;;
22284;SDS011;11311;52.192;20.900;2022-10-16T08:31:24;16.63;;;11.85;;
22284;SDS011;11311;52.192;20.900;2022-10-16T08:33:55;12.68;;;11.15;;
22284;SDS011;11311;52.192;20.900;2022-10-16T08:36:24;16.60;;;11.02;;
22284;SDS011;11311;52.192;20.900;2022-10-16T08:38:55;15.45;;;12.38;;
22284;SDS011;11311;52.192;20.900;2022-10-16T08:41:27;14.93;;;11.68;;
22284;SDS011;11311;52.192;20.900;2022-10-16T08:44:27;13.57;;;11.75;;
22284;SDS011;11311;52.192;20.900;2022-10-16T08:47:06;18.05;;;13.18;;
22284;SDS011;11311;52.192;20.900;2022-10-16T08:49:43;12.07;;;9.52;;
22284;SDS011;11311;52.192;20.900;2022-10-16T08:52:28;13.55;;;11.63;;
22284;SDS011;11311;52.192;20.900;2022-10-16T08:54:58;15.45;;;11.50;;
22284;SDS011;11311;52.192;20.900;2022-10-16T08:57:27;14.52;;;11.93;;
22284;SDS011;11311;52.192;20.900;2022-10-16T08:59:59;12.52;;;11.23;;
22284;SDS011;11311;52.192;20.900;2022-10-16T09:02:31;13.80;;;10.95;;
22284;SDS011;11311;52.192;20.900;2022-10-16T09:07:48;12.77;;;10.27;;
22284;SDS011;11311;52.192;20.900;2022-10-16T09:10:25;11.05;;;9.90;;
22284;SDS011;11311;52.192;20.900;2022-10-16T09:13:00;10.35;;;8.13;;
22284;SDS011;11311;52.192;20.900;2022-10-16T09:15:34;15.10;;;10.90;;
22284;SDS011;11311;52.192;20.900;2022-10-16T09:18:06;12.38;;;11.07;;
22284;SDS011;11311;52.192;20.900;2022-10-16T09:20:42;16.20;;;9.98;;
22284;SDS011;11311;52.192;20.900;2022-10-16T09:23:18;19.10;;;10.77;;
22284;SDS011;11311;52.192;20.900;2022-10-16T09:25:47;12.25;;;9.93;;
22284;SDS011;11311;52.192;20.900;2022-10-16T09:28:17;12.25;;;10.98;;
22284;SDS011;11311;52.192;20.900;2022-10-16T09:30:48;11.13;;;9.20;;
22284;SDS011;11311;52.192;20.900;2022-10-16T09:33:19;11.32;;;10.13;;
22284;SDS011;11311;52.192;20.900;2022-10-16T09:35:50;12.40;;;10.40;;
22284;SDS011;11311;52.192;20.900;2022-10-16T09:38:21;14.85;;;9.90;;
22284;SDS011;11311;52.192;20.900;2022-10-16T09:40:54;13.70;;;8.63;;
22284;SDS011;11311;52.192;20.900;2022-10-16T09:43:32;14.20;;;10.70;;
22284;SDS011;11311;52.192;20.900;2022-10-16T09:46:07;13.88;;;8.82;;
22284;SDS011;11311;52.192;20.900;2022-10-16T09:48:38;14.05;;;10.00;;
22284;SDS011;11311;52.192;20.900;2022-10-16T09:51:20;16.40;;;10.77;;
22284;SDS011;11311;52.192;20.900;2022-10-16T09:53:54;13.00;;;11.30;;
22284;SDS011;11311;52.192;20.900;2022-10-16T09:56:25;12.48;;;9.25;;
22284;SDS011;11311;52.192;20.900;2022-10-16T09:58:55;11.02;;;8.50;;
22284;SDS011;11311;52.192;20.900;2022-10-16T10:01:31;11.52;;;9.82;;
22284;SDS011;11311;52.192;20.900;2022-10-16T10:04:05;13.10;;;10.40;;
22284;SDS011;11311;52.192;20.900;2022-10-16T10:06:34;9.80;;;8.32;;
22284;SDS011;11311;52.192;20.900;2022-10-16T10:09:06;15.27;;;10.52;;
22284;SDS011;11311;52.192;20.900;2022-10-16T10:11:44;14.30;;;10.82;;
22284;SDS011;11311;52.192;20.900;2022-10-16T10:14:19;12.93;;;10.23;;
22284;SDS011;11311;52.192;20.900;2022-10-16T10:17:06;12.05;;;10.85;;
22284;SDS011;11311;52.192;20.900;2022-10-16T10:19:39;10.85;;;9.73;;
22284;SDS011;11311;52.192;20.900;2022-10-16T10:22:19;14.55;;;11.05;;
22284;SDS011;11311;52.192;20.900;2022-10-16T10:25:10;14.63;;;9.35;;
22284;SDS011;11311;52.192;20.900;2022-10-16T10:27:47;11.60;;;9.25;;
22284;SDS011;11311;52.192;20.900;2022-10-16T10:30:25;10.88;;;8.30;;
22284;SDS011;11311;52.192;20.900;2022-10-16T10:33:05;13.23;;;8.65;;
22284;SDS011;11311;52.192;20.900;2022-10-16T10:35:42;15.80;;;11.75;;
22284;SDS011;11311;52.192;20.900;2022-10-16T10:38:18;11.90;;;9.05;;
22284;SDS011;11311;52.192;20.900;2022-10-16T10:40:55;12.07;;;10.77;;
22284;SDS011;11311;52.192;20.900;2022-10-16T10:43:30;13.57;;;10.65;;
22284;SDS011;11311;52.192;20.900;2022-10-16T10:46:08;12.32;;;11.10;;
22284;SDS011;11311;52.192;20.900;2022-10-16T10:48:50;12.23;;;10.93;;
22284;SDS011;11311;52.192;20.900;2022-10-16T10:51:24;7.85;;;7.05;;
22284;SDS011;11311;52.192;20.900;2022-10-16T10:54:01;17.67;;;10.10;;
22284;SDS011;11311;52.192;20.900;2022-10-16T10:56:40;17.13;;;12.10;;
22284;SDS011;11311;52.192;20.900;2022-10-16T10:59:16;14.20;;;10.40;;
22284;SDS011;11311;52.192;20.900;2022-10-16T11:01:54;11.88;;;10.73;;
22284;SDS011;11311;52.192;20.900;2022-10-16T11:07:20;14.80;;;9.85;;
22284;SDS011;11311;52.192;20.900;2022-10-16T11:09:53;14.50;;;11.38;;
22284;SDS011;11311;52.192;20.900;2022-10-16T11:12:25;10.98;;;9.80;;
22284;SDS011;11311;52.192;20.900;2022-10-16T11:14:57;16.10;;;10.65;;
22284;SDS011;11311;52.192;20.900;2022-10-16T11:17:30;19.38;;;11.68;;
22284;SDS011;11311;52.192;20.900;2022-10-16T11:20:05;16.63;;;12.02;;
22284;SDS011;11311;52.192;20.900;2022-10-16T11:22:42;11.75;;;10.25;;
22284;SDS011;11311;52.192;20.900;2022-10-16T11:25:15;15.48;;;11.43;;
22284;SDS011;11311;52.192;20.900;2022-10-16T11:27:48;13.65;;;9.52;;
22284;SDS011;11311;52.192;20.900;2022-10-16T11:30:20;13.73;;;10.02;;
22284;SDS011;11311;52.192;20.900;2022-10-16T11:33:00;10.95;;;9.75;;
22284;SDS011;11311;52.192;20.900;2022-10-16T11:35:37;15.48;;;9.00;;
22284;SDS011;11311;52.192;20.900;2022-10-16T11:38:10;10.07;;;8.05;;
22284;SDS011;11311;52.192;20.900;2022-10-16T11:40:42;10.68;;;9.38;;
22284;SDS011;11311;52.192;20.900;2022-10-16T11:45:43;12.05;;;9.35;;
22284;SDS011;11311;52.192;20.900;2022-10-16T11:48:17;11.00;;;7.85;;
22284;SDS011;11311;52.192;20.900;2022-10-16T11:50:51;12.93;;;9.68;;
22284;SDS011;11311;52.192;20.900;2022-10-16T11:53:23;9.93;;;8.43;;
22284;SDS011;11311;52.192;20.900;2022-10-16T11:56:08;15.35;;;9.75;;
22284;SDS011;11311;52.192;20.900;2022-10-16T11:58:41;12.93;;;9.57;;
22284;SDS011;11311;52.192;20.900;2022-10-16T12:01:17;15.40;;;9.55;;
22284;SDS011;11311;52.192;20.900;2022-10-16T12:03:54;14.82;;;10.48;;
22284;SDS011;11311;52.192;20.900;2022-10-16T12:06:32;12.38;;;10.15;;
22284;SDS011;11311;52.192;20.900;2022-10-16T12:09:04;10.85;;;8.80;;
22284;SDS011;11311;52.192;20.900;2022-10-16T12:11:35;13.38;;;9.30;;
22284;SDS011;11311;52.192;20.900;2022-10-16T12:14:18;14.88;;;9.35;;
22284;SDS011;11311;52.192;20.900;2022-10-16T12:16:52;10.15;;;8.02;;
22284;SDS011;11311;52.192;20.900;2022-10-16T12:19:23;15.00;;;10.20;;
22284;SDS011;11311;52.192;20.900;2022-10-16T12:21:57;16.00;;;8.20;;
22284;SDS011;11311;52.192;20.900;2022-10-16T12:24:29;10.07;;;8.70;;
22284;SDS011;11311;52.192;20.900;2022-10-16T12:27:02;9.30;;;8.38;;
22284;SDS011;11311;52.192;20.900;2022-10-16T12:29:32;10.63;;;8.40;;
22284;SDS011;11311;52.192;20.900;2022-10-16T12:32:04;10.57;;;8.80;;
22284;SDS011;11311;52.192;20.900;2022-10-16T12:34:37;12.35;;;9.68;;
22284;SDS011;11311;52.192;20.900;2022-10-16T12:37:13;11.10;;;9.90;;
22284;SDS011;11311;52.192;20.900;2022-10-16T12:39:43;12.23;;;9.98;;
22284;SDS011;11311;52.192;20.900;2022-10-16T12:42:31;13.23;;;10.18;;
22284;SDS011;11311;52.192;20.900;2022-10-16T12:45:12;14.07;;;9.80;;
22284;SDS011;11311;52.192;20.900;2022-10-16T12:47:51;12.85;;;8.73;;
22284;SDS011;11311;52.192;20.900;2022-10-16T12:50:23;13.52;;;10.10;;
22284;SDS011;11311;52.192;20.900;2022-10-16T12:52:54;8.52;;;7.03;;
22284;SDS011;11311;52.192;20.900;2022-10-16T12:55:23;9.95;;;8.98;;
22284;SDS011;11311;52.192;20.900;2022-10-16T12:58:02;16.02;;;10.02;;
22284;SDS011;11311;52.192;20.900;2022-10-16T13:00:40;12.70;;;9.32;;
22284;SDS011;11311;52.192;20.900;2022-10-16T13:03:35;14.60;;;9.45;;
22284;SDS011;11311;52.192;20.900;2022-10-16T13:06:26;12.23;;;10.02;;
22284;SDS011;11311;52.192;20.900;2022-10-16T13:09:15;12.68;;;10.05;;
22284;SDS011;11311;52.192;20.900;2022-10-16T13:14:54;13.50;;;9.75;;
22284;SDS011;11311;52.192;20.900;2022-10-16T13:17:31;12.57;;;9.40;;
22284;SDS011;11311;52.192;20.900;2022-10-16T13:20:09;16.67;;;10.02;;
22284;SDS011;11311;52.192;20.900;2022-10-16T13:22:43;12.93;;;9.60;;
22284;SDS011;11311;52.192;20.900;2022-10-16T13:25:27;10.45;;;9.38;;
22284;SDS011;11311;52.192;20.900;2022-10-16T13:28:03;10.05;;;9.02;;
22284;SDS011;11311;52.192;20.900;2022-10-16T13:30:34;11.45;;;8.90;;
22284;SDS011;11311;52.192;20.900;2022-10-16T13:33:06;10.18;;;9.18;;
22284;SDS011;11311;52.192;20.900;2022-10-16T13:35:47;15.13;;;9.35;;
22284;SDS011;11311;52.192;20.900;2022-10-16T13:38:18;10.68;;;9.48;;
22284;SDS011;11311;52.192;20.900;2022-10-16T13:40:50;12.13;;;8.00;;
22284;SDS011;11311;52.192;20.900;2022-10-16T13:43:21;14.48;;;9.63;;
22284;SDS011;11311;52.192;20.900;2022-10-16T13:45:52;16.40;;;8.90;;
22284;SDS011;11311;52.192;20.900;2022-10-16T13:51:00;8.57;;;7.60;;
22284;SDS011;11311;52.192;20.900;2022-10-16T13:53:31;11.38;;;7.72;;
22284;SDS011;11311;52.192;20.900;2022-10-16T13:56:03;18.10;;;11.43;;
22284;SDS011;11311;52.192;20.900;2022-10-16T13:58:32;16.95;;;9.90;;
22284;SDS011;11311;52.192;20.900;2022-10-16T14:01:02;13.02;;;8.23;;
22284;SDS011;11311;52.192;20.900;2022-10-16T14:03:33;14.48;;;10.60;;
22284;SDS011;11311;52.192;20.900;2022-10-16T14:06:04;11.23;;;9.68;;
22284;SDS011;11311;52.192;20.900;2022-10-16T14:08:37;11.77;;;9.65;;
22284;SDS011;11311;52.192;20.900;2022-10-16T14:11:12;13.45;;;9.55;;
22284;SDS011;11311;52.192;20.900;2022-10-16T14:13:43;14.73;;;9.35;;
22284;SDS011;11311;52.192;20.900;2022-10-16T14:16:16;16.80;;;8.60;;
22284;SDS011;11311;52.192;20.900;2022-10-16T14:18:46;12.18;;;9.77;;
22284;SDS011;11311;52.192;20.900;2022-10-16T14:21:20;13.45;;;10.23;;
22284;SDS011;11311;52.192;20.900;2022-10-16T14:23:48;12.82;;;10.30;;
22284;SDS011;11311;52.192;20.900;2022-10-16T14:26:20;11.18;;;9.18;;
22284;SDS011;11311;52.192;20.900;2022-10-16T14:28:49;16.52;;;12.18;;
22284;SDS011;11311;52.192;20.900;2022-10-16T14:31:32;12.93;;;9.70;;
22284;SDS011;11311;52.192;20.900;2022-10-16T14:34:03;14.18;;;9.98;;
22284;SDS011;11311;52.192;20.900;2022-10-16T14:36:33;13.38;;;9.90;;
22284;SDS011;11311;52.192;20.900;2022-10-16T14:39:02;11.75;;;9.18;;
22284;SDS011;11311;52.192;20.900;2022-10-16T14:41:40;12.85;;;9.20;;
22284;SDS011;11311;52.192;20.900;2022-10-16T14:44:11;14.38;;;11.02;;
22284;SDS011;11311;52.192;20.900;2022-10-16T14:46:41;14.80;;;10.75;;
22284;SDS011;11311;52.192;20.900;2022-10-16T14:49:13;16.67;;;9.97;;
22284;SDS011;11311;52.192;20.900;2022-10-16T14:51:45;13.52;;;9.35;;
22284;SDS011;11311;52.192;20.900;2022-10-16T14:54:15;12.18;;;10.55;;
22284;SDS011;11311;52.192;20.900;2022-10-16T14:56:47;13.90;;;10.90;;
22284;SDS011;11311;52.192;20.900;2022-10-16T14:59:18;14.75;;;10.65;;
22284;SDS011;11311;52.192;20.900;2022-10-16T15:01:56;12.45;;;9.98;;
22284;SDS011;11311;52.192;20.900;2022-10-16T15:04:24;12.90;;;10.48;;
22284;SDS011;11311;52.192;20.900;2022-10-16T15:06:53;13.63;;;10.32;;
22284;SDS011;11311;52.192;20.900;2022-10-16T15:09:22;13.18;;;10.93;;
22284;SDS011;11311;52.192;20.900;2022-10-16T15:11:52;12.85;;;9.82;;
22284;SDS011;11311;52.192;20.900;2022-10-16T15:16:50;18.33;;;10.23;;